createdAt,value
2017-12-31T00:03:22.924Z,0
2017-12-31T00:04:11.279Z,0
2017-12-31T00:05:02.390Z,0
2017-12-31T00:05:52.299Z,0
2017-12-31T00:06:40.851Z,0
2017-12-31T00:07:29.648Z,0
2017-12-31T00:13:25.204Z,0
2017-12-31T00:14:05.639Z,0
2017-12-31T00:14:46.145Z,0
2017-12-31T00:15:26.426Z,0
2017-12-31T00:16:06.824Z,0
2017-12-31T00:16:47.261Z,0
2017-12-31T00:17:27.706Z,0
2017-12-31T00:18:08.146Z,0
2017-12-31T00:18:48.587Z,0
2017-12-31T00:19:28.989Z,0
2017-12-31T00:20:09.582Z,0
2017-12-31T00:20:49.747Z,0
2017-12-31T00:21:30.210Z,0
2017-12-31T00:22:11.299Z,0
2017-12-31T00:22:51.685Z,0
2017-12-31T00:23:32.284Z,0
2017-12-31T00:24:12.795Z,0
2017-12-31T00:31:05.954Z,0
2017-12-31T00:31:46.391Z,0
2017-12-31T00:32:27.432Z,0
2017-12-31T00:33:07.957Z,0
2017-12-31T00:33:50.136Z,0
2017-12-31T00:34:30.693Z,0
2017-12-31T00:35:11.319Z,0
2017-12-31T00:35:51.959Z,0
2017-12-31T00:36:32.775Z,0
2017-12-31T00:37:13.141Z,0
2017-12-31T00:37:57.760Z,0
2017-12-31T00:38:37.106Z,0
2017-12-31T00:39:17.918Z,0
2017-12-31T00:39:59.532Z,0
2017-12-31T00:40:40.211Z,0
2017-12-31T00:41:20.626Z,0
2017-12-31T00:42:01.244Z,0
2017-12-31T00:42:42.051Z,0
2017-12-31T00:43:22.370Z,0
2017-12-31T00:44:04.805Z,0
2017-12-31T00:44:45.306Z,0
2017-12-31T00:45:25.588Z,0
2017-12-31T00:46:06.321Z,0
2017-12-31T00:46:48.697Z,0
2017-12-31T00:47:27.875Z,0
2017-12-31T00:48:08.721Z,0
2017-12-31T00:48:49.120Z,0
2017-12-31T00:49:30.739Z,0
2017-12-31T00:50:11.825Z,0
2017-12-31T00:50:52.436Z,0
2017-12-31T00:51:36.762Z,0
2017-12-31T00:52:17.153Z,0
2017-12-31T00:52:57.746Z,0
2017-12-31T00:53:37.963Z,0
2017-12-31T00:54:18.794Z,0
2017-12-31T00:54:59.723Z,0
2017-12-31T00:55:40.628Z,0
2017-12-31T00:56:21.214Z,0
2017-12-31T00:57:03.110Z,0
2017-12-31T00:57:42.150Z,0
2017-12-31T00:58:26.853Z,0
2017-12-31T00:59:07.478Z,0
2017-12-31T00:59:50.513Z,0
2017-12-31T01:00:31.286Z,0
2017-12-31T01:01:13.274Z,0
2017-12-31T01:01:52.789Z,0
2017-12-31T01:02:34.948Z,0
2017-12-31T01:03:15.920Z,0
2017-12-31T01:03:56.969Z,0
2017-12-31T01:04:42.058Z,0
2017-12-31T01:05:26.410Z,0
2017-12-31T01:06:10.287Z,0
2017-12-31T01:06:51.838Z,0
2017-12-31T01:07:33.188Z,0
2017-12-31T01:08:15.771Z,0
2017-12-31T01:08:54.748Z,0
2017-12-31T01:09:35.938Z,0
2017-12-31T01:10:17.758Z,0
2017-12-31T01:10:57.778Z,0
2017-12-31T01:11:39.270Z,0
2017-12-31T01:12:19.916Z,0
2017-12-31T01:13:02.831Z,0
2017-12-31T01:13:44.625Z,0
2017-12-31T01:14:27.699Z,0
2017-12-31T01:15:09.274Z,0
2017-12-31T01:15:54.676Z,0
2017-12-31T01:22:12.697Z,0
2017-12-31T01:23:18.681Z,0
2017-12-31T01:24:01.811Z,0
2017-12-31T01:24:42.345Z,0
2017-12-31T01:27:27.516Z,0
2017-12-31T01:28:07.052Z,0
2017-12-31T01:28:47.130Z,0
2017-12-31T01:29:30.620Z,0
2017-12-31T01:30:13.472Z,0
2017-12-31T01:30:53.232Z,0
2017-12-31T01:31:34.565Z,0
2017-12-31T01:32:16.670Z,0
2017-12-31T01:33:00.108Z,0
2017-12-31T01:33:40.429Z,0
2017-12-31T01:34:22.234Z,0
2017-12-31T01:35:05.983Z,0
2017-12-31T01:35:46.640Z,0
2017-12-31T01:36:27.277Z,0
2017-12-31T01:37:07.547Z,0
2017-12-31T01:37:48.860Z,0
2017-12-31T01:38:29.873Z,0
2017-12-31T01:39:11.158Z,0
2017-12-31T01:39:52.899Z,0
2017-12-31T01:40:36.068Z,0
2017-12-31T01:41:16.729Z,0
2017-12-31T01:41:57.268Z,0
2017-12-31T01:45:24.369Z,0
2017-12-31T01:46:06.351Z,0
2017-12-31T01:46:45.852Z,0
2017-12-31T01:47:28.097Z,0
2017-12-31T01:48:08.104Z,0
2017-12-31T01:48:48.004Z,0
2017-12-31T01:49:28.955Z,0
2017-12-31T01:50:13.554Z,0
2017-12-31T01:50:51.959Z,0
2017-12-31T01:51:32.720Z,0
2017-12-31T01:52:13.045Z,0
2017-12-31T01:52:53.980Z,0
2017-12-31T01:55:39.552Z,0
2017-12-31T01:56:20.112Z,0
2017-12-31T01:57:00.671Z,0
2017-12-31T01:57:41.540Z,0
2017-12-31T01:58:21.693Z,0
2017-12-31T01:59:02.004Z,0
2017-12-31T01:59:42.527Z,0
2017-12-31T02:00:22.905Z,0
2017-12-31T02:01:03.304Z,0
2017-12-31T02:01:43.724Z,0
2017-12-31T02:02:24.121Z,0
2017-12-31T02:03:04.792Z,0
2017-12-31T02:03:47.757Z,0
2017-12-31T02:04:26.920Z,0
2017-12-31T02:05:07.400Z,0
2017-12-31T02:05:47.768Z,0
2017-12-31T02:06:29.228Z,0
2017-12-31T02:07:09.640Z,0
2017-12-31T02:07:50.713Z,0
2017-12-31T02:08:31.157Z,0
2017-12-31T02:09:11.649Z,0
2017-12-31T02:09:52.093Z,0
2017-12-31T02:10:32.569Z,0
2017-12-31T02:11:13.072Z,0
2017-12-31T02:11:54.027Z,0
2017-12-31T02:12:34.094Z,0
2017-12-31T02:13:14.691Z,0
2017-12-31T02:24:17.610Z,0
2017-12-31T02:24:59.100Z,0
2017-12-31T02:25:39.405Z,0
2017-12-31T02:26:19.916Z,0
2017-12-31T02:27:00.433Z,0
2017-12-31T02:27:40.921Z,0
2017-12-31T02:28:21.376Z,0
2017-12-31T02:29:02.069Z,0
2017-12-31T02:29:43.216Z,0
2017-12-31T02:30:23.020Z,0
2017-12-31T02:31:03.529Z,0
2017-12-31T02:31:44.550Z,0
2017-12-31T02:32:25.337Z,0
2017-12-31T02:39:37.858Z,0
2017-12-31T02:40:18.255Z,0
2017-12-31T02:40:58.756Z,0
2017-12-31T02:41:39.645Z,0
2017-12-31T02:42:20.051Z,0
2017-12-31T02:43:00.597Z,0
2017-12-31T02:43:41.415Z,0
2017-12-31T02:44:21.816Z,0
2017-12-31T02:45:02.252Z,0
2017-12-31T02:45:42.660Z,0
2017-12-31T02:46:23.082Z,0
2017-12-31T02:47:03.531Z,0
2017-12-31T02:47:44.063Z,0
2017-12-31T02:48:24.404Z,0
2017-12-31T02:49:04.730Z,0
2017-12-31T02:49:45.152Z,0
2017-12-31T02:50:25.590Z,0
2017-12-31T02:51:06.005Z,0
2017-12-31T02:51:46.392Z,0
2017-12-31T02:52:26.929Z,0
2017-12-31T02:53:07.234Z,0
2017-12-31T02:53:47.633Z,0
2017-12-31T02:54:28.059Z,0
2017-12-31T02:55:08.507Z,0
2017-12-31T02:55:48.913Z,0
2017-12-31T02:56:29.306Z,0
2017-12-31T02:57:09.716Z,0
2017-12-31T02:57:50.260Z,0
2017-12-31T02:58:30.485Z,0
2017-12-31T02:59:10.873Z,0
2017-12-31T02:59:51.354Z,0
2017-12-31T03:00:31.761Z,0
2017-12-31T03:01:12.114Z,0
2017-12-31T03:01:52.861Z,0
2017-12-31T03:02:33.224Z,0
2017-12-31T03:03:13.667Z,0
2017-12-31T03:03:54.173Z,0
2017-12-31T03:04:34.955Z,0
2017-12-31T03:05:16.030Z,0
2017-12-31T03:05:56.379Z,0
2017-12-31T03:06:36.728Z,0
2017-12-31T03:10:02.152Z,0
2017-12-31T03:10:42.491Z,0
2017-12-31T03:11:22.854Z,0
2017-12-31T03:12:03.246Z,0
2017-12-31T03:12:43.704Z,0
2017-12-31T03:13:24.272Z,0
2017-12-31T03:14:04.738Z,0
2017-12-31T03:14:45.072Z,0
2017-12-31T03:15:25.553Z,0
2017-12-31T03:16:05.920Z,0
2017-12-31T03:16:46.348Z,0
2017-12-31T03:17:26.738Z,0
2017-12-31T03:18:07.155Z,0
2017-12-31T03:18:49.215Z,0
2017-12-31T03:19:29.517Z,0
2017-12-31T03:20:10.020Z,0
2017-12-31T03:20:50.452Z,0
2017-12-31T03:21:30.858Z,0
2017-12-31T03:22:11.354Z,0
2017-12-31T03:22:51.786Z,0
2017-12-31T03:23:32.329Z,0
2017-12-31T03:29:47.603Z,0
2017-12-31T03:30:26.540Z,0
2017-12-31T03:31:07.489Z,0
2017-12-31T03:31:47.914Z,0
2017-12-31T03:32:29.183Z,0
2017-12-31T03:33:09.355Z,0
2017-12-31T03:33:50.027Z,0
2017-12-31T03:36:31.992Z,0
2017-12-31T03:37:13.056Z,0
2017-12-31T03:37:52.856Z,0
2017-12-31T03:38:33.719Z,0
2017-12-31T03:39:14.453Z,0
2017-12-31T03:39:55.210Z,0
2017-12-31T03:40:35.789Z,0
2017-12-31T03:41:17.871Z,0
2017-12-31T03:41:58.355Z,0
2017-12-31T03:42:38.783Z,0
2017-12-31T03:43:19.303Z,0
2017-12-31T03:43:59.994Z,0
2017-12-31T03:44:40.842Z,0
2017-12-31T03:45:21.386Z,0
2017-12-31T03:46:02.001Z,0
2017-12-31T03:46:42.438Z,0
2017-12-31T03:47:23.316Z,0
2017-12-31T03:48:03.885Z,0
2017-12-31T03:48:44.258Z,0
2017-12-31T03:49:24.824Z,0
2017-12-31T03:50:05.359Z,0
2017-12-31T03:50:46.471Z,0
2017-12-31T03:51:29.817Z,0
2017-12-31T03:52:10.231Z,0
2017-12-31T03:52:50.755Z,0
2017-12-31T03:53:31.088Z,0
2017-12-31T03:54:12.086Z,0
2017-12-31T03:54:52.565Z,0
2017-12-31T03:55:33.187Z,0
2017-12-31T03:56:13.982Z,0
2017-12-31T03:56:54.346Z,0
2017-12-31T03:57:34.842Z,0
2017-12-31T03:58:15.348Z,0
2017-12-31T03:58:55.956Z,0
2017-12-31T03:59:36.725Z,0
2017-12-31T04:00:17.360Z,0
2017-12-31T04:00:58.008Z,0
2017-12-31T04:01:38.474Z,0
2017-12-31T04:43:10.268Z,0
2017-12-31T04:43:51.076Z,0
2017-12-31T04:44:31.627Z,0
2017-12-31T04:45:12.101Z,0
2017-12-31T04:45:52.672Z,0
2017-12-31T04:46:33.002Z,0
2017-12-31T04:47:13.663Z,0
2017-12-31T04:47:53.848Z,0
2017-12-31T04:48:34.348Z,0
2017-12-31T04:49:15.073Z,0
2017-12-31T04:49:55.731Z,0
2017-12-31T04:50:36.395Z,0
2017-12-31T04:51:16.806Z,0
2017-12-31T04:51:57.118Z,0
2017-12-31T04:52:37.720Z,0
2017-12-31T04:53:18.210Z,0
2017-12-31T04:53:58.653Z,0
2017-12-31T04:54:39.838Z,0
2017-12-31T04:55:20.511Z,0
2017-12-31T04:56:01.097Z,0
2017-12-31T04:56:42.110Z,0
2017-12-31T04:57:22.668Z,0
2017-12-31T04:58:03.266Z,0
2017-12-31T04:58:44.016Z,0
2017-12-31T04:59:24.761Z,0
2017-12-31T05:00:05.191Z,0
2017-12-31T05:00:45.834Z,0
2017-12-31T05:01:26.439Z,0
2017-12-31T05:02:06.868Z,0
2017-12-31T05:02:47.269Z,0
2017-12-31T05:03:27.721Z,0
2017-12-31T05:04:08.192Z,0
2017-12-31T05:04:48.625Z,0
2017-12-31T05:05:29.248Z,0
2017-12-31T05:06:09.859Z,0
2017-12-31T05:06:50.187Z,0
2017-12-31T05:07:30.784Z,0
2017-12-31T05:08:11.054Z,0
2017-12-31T05:08:51.495Z,0
2017-12-31T05:09:32.096Z,0
2017-12-31T05:10:13.499Z,0
2017-12-31T05:10:54.253Z,0
2017-12-31T05:11:35.324Z,0
2017-12-31T05:12:17.721Z,0
2017-12-31T05:12:58.211Z,0
2017-12-31T05:15:35.198Z,0
2017-12-31T05:16:15.579Z,0
2017-12-31T05:16:56.112Z,0
2017-12-31T05:17:36.747Z,0
2017-12-31T05:18:17.255Z,0
2017-12-31T05:18:58.018Z,0
2017-12-31T05:21:21.824Z,0
2017-12-31T05:22:02.185Z,0
2017-12-31T05:22:42.689Z,0
2017-12-31T05:23:23.136Z,0
2017-12-31T05:24:03.621Z,0
2017-12-31T05:24:44.322Z,0
2017-12-31T05:25:25.708Z,0
2017-12-31T05:26:06.270Z,0
2017-12-31T05:26:47.345Z,0
2017-12-31T05:27:27.663Z,0
2017-12-31T05:28:08.120Z,0
2017-12-31T05:28:48.504Z,0
2017-12-31T05:29:29.182Z,0
2017-12-31T05:30:09.586Z,0
2017-12-31T05:30:49.976Z,0
2017-12-31T05:31:30.361Z,0
2017-12-31T05:32:10.857Z,0
2017-12-31T05:32:51.284Z,0
2017-12-31T05:33:31.770Z,0
2017-12-31T05:34:12.196Z,0
2017-12-31T05:34:52.507Z,0
2017-12-31T05:35:32.964Z,0
2017-12-31T05:36:13.761Z,0
2017-12-31T05:36:54.193Z,0
2017-12-31T05:37:34.633Z,0
2017-12-31T05:38:15.086Z,0
2017-12-31T05:38:56.310Z,0
2017-12-31T05:39:36.733Z,0
2017-12-31T05:40:17.114Z,0
2017-12-31T05:40:57.659Z,0
2017-12-31T05:41:38.050Z,0
2017-12-31T05:42:18.526Z,0
2017-12-31T05:42:58.925Z,0
2017-12-31T05:43:39.340Z,0
2017-12-31T05:44:19.826Z,0
2017-12-31T05:45:00.195Z,0
2017-12-31T05:45:40.609Z,0
2017-12-31T05:46:21.063Z,0
2017-12-31T05:47:01.726Z,0
2017-12-31T05:47:42.129Z,0
2017-12-31T05:48:22.910Z,0
2017-12-31T05:49:03.330Z,0
2017-12-31T05:49:43.788Z,0
2017-12-31T05:50:24.176Z,0
2017-12-31T05:51:04.587Z,0
2017-12-31T05:51:45.096Z,0
2017-12-31T05:52:25.621Z,0
2017-12-31T05:55:20.006Z,0
2017-12-31T05:56:09.267Z,0
2017-12-31T05:56:55.741Z,0
2017-12-31T05:57:39.071Z,0
2017-12-31T05:58:19.730Z,0
2017-12-31T05:59:00.222Z,0
2017-12-31T06:04:22.042Z,0
2017-12-31T06:05:03.438Z,0
2017-12-31T06:05:44.017Z,0
2017-12-31T06:06:24.263Z,0
2017-12-31T06:07:05.052Z,0
2017-12-31T06:07:46.163Z,0
2017-12-31T06:08:26.721Z,0
2017-12-31T06:09:08.116Z,0
2017-12-31T06:09:49.317Z,0
2017-12-31T06:10:29.965Z,0
2017-12-31T06:11:10.488Z,0
2017-12-31T06:11:50.935Z,0
2017-12-31T06:12:31.373Z,0
2017-12-31T06:13:12.070Z,0
2017-12-31T06:13:53.257Z,0
2017-12-31T06:14:33.769Z,0
2017-12-31T06:15:14.358Z,0
2017-12-31T06:15:55.348Z,0
2017-12-31T06:16:35.760Z,0
2017-12-31T06:17:16.448Z,0
2017-12-31T06:17:57.025Z,0
2017-12-31T06:18:37.836Z,0
2017-12-31T06:19:18.633Z,0
2017-12-31T06:20:00.945Z,0
2017-12-31T06:20:41.456Z,0
2017-12-31T06:21:22.355Z,0
2017-12-31T06:22:02.796Z,0
2017-12-31T06:22:43.317Z,0
2017-12-31T06:23:24.817Z,0
2017-12-31T06:24:07.395Z,0
2017-12-31T06:24:48.582Z,0
2017-12-31T06:25:29.312Z,0
2017-12-31T06:26:09.779Z,0
2017-12-31T06:26:50.476Z,0
2017-12-31T06:27:31.070Z,0
2017-12-31T06:28:11.528Z,0
2017-12-31T06:28:52.712Z,0
2017-12-31T06:29:33.289Z,0
2017-12-31T06:30:14.071Z,0
2017-12-31T06:30:54.424Z,0
2017-12-31T06:31:35.654Z,0
2017-12-31T06:32:16.028Z,0
2017-12-31T06:32:56.457Z,0
2017-12-31T06:33:37.084Z,0
2017-12-31T06:34:17.795Z,0
2017-12-31T06:35:00.820Z,0
2017-12-31T06:35:40.967Z,0
2017-12-31T06:36:22.441Z,0
2017-12-31T06:37:02.466Z,0
2017-12-31T06:37:43.279Z,0
2017-12-31T06:38:23.815Z,0
2017-12-31T06:41:07.260Z,0
2017-12-31T06:41:47.757Z,0
2017-12-31T06:42:28.269Z,0
2017-12-31T06:43:08.850Z,0
2017-12-31T06:43:49.299Z,0
2017-12-31T06:44:29.908Z,0
2017-12-31T06:45:10.604Z,0
2017-12-31T06:45:51.171Z,0
2017-12-31T06:46:31.598Z,0
2017-12-31T06:47:12.992Z,0
2017-12-31T06:47:54.120Z,0
2017-12-31T06:48:34.866Z,0
2017-12-31T06:49:15.231Z,0
2017-12-31T06:49:55.601Z,0
2017-12-31T06:50:36.113Z,0
2017-12-31T06:51:16.871Z,0
2017-12-31T06:51:57.547Z,0
2017-12-31T06:52:38.559Z,0
2017-12-31T06:53:19.018Z,0
2017-12-31T06:53:59.817Z,0
2017-12-31T06:54:40.343Z,0
2017-12-31T06:57:18.579Z,0
2017-12-31T06:57:58.991Z,0
2017-12-31T07:00:39.275Z,0
2017-12-31T07:01:19.474Z,0
2017-12-31T07:04:02.629Z,0
2017-12-31T07:04:42.102Z,0
2017-12-31T07:05:23.039Z,0
2017-12-31T07:06:03.900Z,0
2017-12-31T07:06:44.425Z,0
2017-12-31T07:07:25.154Z,0
2017-12-31T07:08:06.382Z,0
2017-12-31T07:08:46.962Z,0
2017-12-31T07:09:27.394Z,0
2017-12-31T07:10:08.000Z,0
2017-12-31T07:10:49.574Z,0
2017-12-31T07:11:30.361Z,0
2017-12-31T07:12:10.830Z,0
2017-12-31T07:12:51.278Z,0
2017-12-31T07:13:31.879Z,0
2017-12-31T07:14:12.297Z,0
2017-12-31T07:14:52.865Z,0
2017-12-31T07:15:33.375Z,0
2017-12-31T07:16:13.792Z,0
2017-12-31T07:16:54.328Z,0
2017-12-31T07:17:34.688Z,0
2017-12-31T07:18:15.219Z,0
2017-12-31T07:18:56.130Z,0
2017-12-31T07:19:36.613Z,0
2017-12-31T07:20:17.262Z,0
2017-12-31T07:20:57.753Z,0
2017-12-31T07:21:38.199Z,0
2017-12-31T07:22:19.340Z,0
2017-12-31T07:23:02.128Z,0
2017-12-31T07:23:42.280Z,0
2017-12-31T07:24:25.777Z,0
2017-12-31T07:25:06.558Z,0
2017-12-31T07:25:47.668Z,0
2017-12-31T07:26:27.960Z,0
2017-12-31T07:27:08.458Z,0
2017-12-31T07:27:49.217Z,0
2017-12-31T07:30:11.059Z,0
2017-12-31T07:30:52.274Z,0
2017-12-31T07:31:34.449Z,0
2017-12-31T07:32:14.968Z,0
2017-12-31T07:32:56.738Z,0
2017-12-31T07:33:37.241Z,0
2017-12-31T07:34:17.493Z,0
2017-12-31T07:34:58.196Z,0
2017-12-31T07:35:38.819Z,0
2017-12-31T07:36:19.551Z,0
2017-12-31T07:37:00.233Z,0
2017-12-31T07:37:40.635Z,0
2017-12-31T07:38:22.145Z,0
2017-12-31T07:39:02.222Z,0
2017-12-31T07:39:42.533Z,0
2017-12-31T07:40:23.889Z,0
2017-12-31T07:41:04.415Z,0
2017-12-31T07:41:44.969Z,0
2017-12-31T07:42:27.703Z,0
2017-12-31T07:43:08.088Z,0
2017-12-31T07:43:48.457Z,0
2017-12-31T07:44:28.924Z,0
2017-12-31T07:45:09.554Z,0
2017-12-31T07:45:49.931Z,0
2017-12-31T07:46:30.507Z,0
2017-12-31T07:47:11.023Z,0
2017-12-31T07:47:51.695Z,5
2017-12-31T07:48:32.419Z,5
2017-12-31T07:49:12.956Z,5
2017-12-31T07:49:53.488Z,5
2017-12-31T07:50:35.144Z,5
2017-12-31T07:51:15.606Z,5
2017-12-31T07:51:57.321Z,5
2017-12-31T07:52:37.667Z,5
2017-12-31T07:53:18.414Z,5
2017-12-31T07:53:59.014Z,5
2017-12-31T07:54:39.646Z,0
2017-12-31T07:55:20.040Z,0
2017-12-31T07:56:00.435Z,0
2017-12-31T07:58:39.739Z,0
2017-12-31T07:59:20.422Z,0
2017-12-31T08:00:01.148Z,0
2017-12-31T08:00:44.006Z,0
2017-12-31T08:01:24.381Z,0
2017-12-31T08:02:04.814Z,0
2017-12-31T08:02:45.807Z,0
2017-12-31T08:03:26.206Z,0
2017-12-31T08:05:48.918Z,0
2017-12-31T08:06:29.082Z,0
2017-12-31T08:07:09.720Z,0
2017-12-31T08:07:50.398Z,0
2017-12-31T08:08:30.903Z,0
2017-12-31T08:09:11.947Z,0
2017-12-31T08:09:52.551Z,0
2017-12-31T08:10:33.161Z,0
2017-12-31T08:14:05.376Z,5
2017-12-31T08:14:45.891Z,5
2017-12-31T08:15:27.897Z,5
2017-12-31T08:16:09.336Z,5
2017-12-31T08:18:26.597Z,5
2017-12-31T08:19:08.187Z,5
2017-12-31T08:19:48.468Z,5
2017-12-31T08:20:29.005Z,5
2017-12-31T08:21:09.361Z,5
2017-12-31T08:21:49.757Z,5
2017-12-31T08:22:30.358Z,5
2017-12-31T08:23:11.363Z,5
2017-12-31T08:23:52.088Z,5
2017-12-31T08:24:32.535Z,5
2017-12-31T08:25:12.942Z,5
2017-12-31T08:27:57.856Z,5
2017-12-31T08:28:43.012Z,5
2017-12-31T08:29:23.237Z,5
2017-12-31T08:30:03.872Z,5
2017-12-31T08:30:44.506Z,5
2017-12-31T08:31:25.222Z,5
2017-12-31T08:32:05.844Z,5
2017-12-31T08:32:46.388Z,5
2017-12-31T08:33:26.667Z,5
2017-12-31T08:34:07.164Z,5
2017-12-31T08:34:47.545Z,5
2017-12-31T08:35:28.114Z,5
2017-12-31T08:36:08.452Z,5
2017-12-31T08:38:43.623Z,5
2017-12-31T08:39:26.211Z,5
2017-12-31T08:40:06.674Z,0
2017-12-31T08:40:47.087Z,0
2017-12-31T08:41:27.402Z,0
2017-12-31T08:42:08.586Z,0
2017-12-31T08:42:49.018Z,5
2017-12-31T08:43:29.398Z,5
2017-12-31T08:44:09.940Z,5
2017-12-31T08:44:50.661Z,5
2017-12-31T08:45:31.599Z,5
2017-12-31T08:46:12.560Z,5
2017-12-31T08:46:53.028Z,5
2017-12-31T08:47:33.929Z,5
2017-12-31T08:48:14.281Z,5
2017-12-31T08:48:54.950Z,5
2017-12-31T08:49:35.920Z,5
2017-12-31T08:50:16.383Z,5
2017-12-31T08:50:57.906Z,5
2017-12-31T08:51:39.076Z,5
2017-12-31T08:52:19.713Z,5
2017-12-31T08:53:00.185Z,5
2017-12-31T08:53:40.586Z,5
2017-12-31T08:54:21.848Z,5
2017-12-31T08:55:02.330Z,5
2017-12-31T08:55:43.120Z,5
2017-12-31T08:56:23.662Z,5
2017-12-31T08:57:04.456Z,5
2017-12-31T08:57:44.652Z,5
2017-12-31T08:58:25.080Z,5
2017-12-31T09:00:44.889Z,5
2017-12-31T09:01:25.389Z,5
2017-12-31T09:02:05.746Z,5
2017-12-31T09:02:46.304Z,5
2017-12-31T09:03:27.134Z,5
2017-12-31T09:04:07.501Z,5
2017-12-31T09:04:48.108Z,5
2017-12-31T09:05:28.486Z,5
2017-12-31T09:06:09.064Z,5
2017-12-31T09:06:49.550Z,5
2017-12-31T09:07:29.850Z,5
2017-12-31T09:08:10.426Z,5
2017-12-31T09:08:50.797Z,5
2017-12-31T09:09:33.971Z,5
2017-12-31T09:10:14.525Z,5
2017-12-31T09:10:55.462Z,5
2017-12-31T09:11:36.044Z,5
2017-12-31T09:12:16.778Z,5
2017-12-31T09:12:57.430Z,5
2017-12-31T09:13:37.922Z,5
2017-12-31T09:14:18.667Z,5
2017-12-31T09:15:01.817Z,5
2017-12-31T09:15:43.450Z,5
2017-12-31T09:16:24.401Z,5
2017-12-31T09:18:53.055Z,5
2017-12-31T09:19:34.499Z,5
2017-12-31T09:20:15.229Z,5
2017-12-31T09:20:55.735Z,5
2017-12-31T09:23:38.816Z,5
2017-12-31T09:24:18.296Z,5
2017-12-31T09:24:59.108Z,5
2017-12-31T09:25:40.116Z,5
2017-12-31T09:26:20.867Z,0
2017-12-31T09:27:01.423Z,0
2017-12-31T09:27:42.585Z,0
2017-12-31T09:28:23.154Z,0
2017-12-31T09:29:03.656Z,0
2017-12-31T09:29:45.049Z,0
2017-12-31T09:30:25.533Z,0
2017-12-31T09:31:06.604Z,0
2017-12-31T09:31:47.071Z,0
2017-12-31T09:32:27.716Z,0
2017-12-31T09:33:08.218Z,0
2017-12-31T09:33:48.879Z,5
2017-12-31T09:34:29.191Z,5
2017-12-31T09:35:10.130Z,5
2017-12-31T09:35:50.543Z,5
2017-12-31T09:36:31.448Z,5
2017-12-31T09:37:12.067Z,5
2017-12-31T09:37:52.801Z,5
2017-12-31T09:40:25.298Z,5
2017-12-31T09:41:05.987Z,5
2017-12-31T09:41:46.872Z,5
2017-12-31T09:42:27.548Z,10
2017-12-31T09:43:08.041Z,10
2017-12-31T09:43:48.387Z,15
2017-12-31T09:44:28.866Z,15
2017-12-31T09:45:09.345Z,15
2017-12-31T09:45:49.855Z,15
2017-12-31T09:46:30.231Z,15
2017-12-31T09:47:11.138Z,10
2017-12-31T09:47:52.357Z,10
2017-12-31T09:48:33.168Z,15
2017-12-31T09:49:13.396Z,15
2017-12-31T09:49:53.913Z,15
2017-12-31T09:50:34.503Z,15
2017-12-31T09:51:15.301Z,15
2017-12-31T09:51:55.927Z,15
2017-12-31T09:52:36.499Z,15
2017-12-31T09:53:17.032Z,15
2017-12-31T09:53:58.189Z,15
2017-12-31T09:54:38.847Z,15
2017-12-31T09:55:19.267Z,20
2017-12-31T09:55:59.996Z,20
2017-12-31T09:56:40.895Z,20
2017-12-31T09:57:21.916Z,20
2017-12-31T09:58:02.455Z,20
2017-12-31T09:58:43.357Z,15
2017-12-31T09:59:24.395Z,20
2017-12-31T10:00:05.053Z,15
2017-12-31T10:00:45.589Z,20
2017-12-31T10:01:26.071Z,20
2017-12-31T10:02:06.600Z,20
2017-12-31T10:02:47.058Z,20
2017-12-31T10:03:27.516Z,15
2017-12-31T10:44:18.443Z,15
2017-12-31T10:45:07.110Z,15
2017-12-31T10:45:56.032Z,15
2017-12-31T10:46:44.957Z,15
2017-12-31T10:47:33.916Z,15
2017-12-31T10:49:50.295Z,15
2017-12-31T10:50:31.143Z,15
2017-12-31T10:51:11.578Z,15
2017-12-31T10:51:52.777Z,15
2017-12-31T10:52:32.910Z,15
2017-12-31T10:53:13.379Z,15
2017-12-31T10:55:52.060Z,20
2017-12-31T10:56:32.007Z,20
2017-12-31T10:57:12.694Z,20
2017-12-31T10:57:55.508Z,20
2017-12-31T10:58:36.326Z,20
2017-12-31T10:59:16.898Z,20
2017-12-31T10:59:57.445Z,20
2017-12-31T11:00:38.097Z,15
2017-12-31T11:01:18.829Z,20
2017-12-31T11:02:00.587Z,20
2017-12-31T11:02:40.874Z,20
2017-12-31T11:03:22.022Z,25
2017-12-31T11:04:02.824Z,35
2017-12-31T11:04:43.803Z,35
2017-12-31T11:05:24.282Z,40
2017-12-31T11:06:05.297Z,40
2017-12-31T11:06:45.822Z,40
2017-12-31T11:09:30.705Z,40
2017-12-31T11:10:09.053Z,40
2017-12-31T11:10:49.626Z,35
2017-12-31T11:11:31.053Z,35
2017-12-31T11:12:11.543Z,40
2017-12-31T11:12:52.052Z,35
2017-12-31T11:13:32.600Z,35
2017-12-31T11:14:13.784Z,35
2017-12-31T11:14:54.185Z,35
2017-12-31T11:15:34.951Z,35
2017-12-31T11:16:15.667Z,35
2017-12-31T11:16:56.274Z,35
2017-12-31T11:17:37.260Z,40
2017-12-31T11:18:17.983Z,40
2017-12-31T11:18:58.641Z,35
2017-12-31T11:19:39.435Z,40
2017-12-31T11:20:19.833Z,40
2017-12-31T11:21:00.443Z,40
2017-12-31T11:21:42.238Z,45
2017-12-31T11:22:22.631Z,40
2017-12-31T11:23:03.155Z,35
2017-12-31T11:23:43.804Z,40
2017-12-31T11:24:24.357Z,35
2017-12-31T11:25:05.426Z,35
2017-12-31T11:25:46.196Z,35
2017-12-31T11:26:26.631Z,35
2017-12-31T11:27:10.341Z,35
2017-12-31T11:27:51.752Z,35
2017-12-31T11:28:32.133Z,35
2017-12-31T11:29:12.931Z,35
2017-12-31T11:29:53.481Z,35
2017-12-31T11:32:30.013Z,35
2017-12-31T11:33:10.644Z,35
2017-12-31T11:33:51.374Z,35
2017-12-31T11:34:33.038Z,40
2017-12-31T11:35:15.108Z,35
2017-12-31T11:35:56.245Z,35
2017-12-31T11:36:36.813Z,35
2017-12-31T11:37:17.339Z,30
2017-12-31T11:37:59.013Z,35
2017-12-31T11:38:40.404Z,40
2017-12-31T11:41:39.707Z,40
2017-12-31T11:42:29.168Z,35
2017-12-31T11:43:17.490Z,30
2017-12-31T11:44:04.770Z,35
2017-12-31T11:44:54.376Z,35
2017-12-31T11:49:04.946Z,35
2017-12-31T11:49:44.955Z,40
2017-12-31T11:50:25.460Z,40
2017-12-31T11:51:07.120Z,40
2017-12-31T11:51:48.584Z,45
2017-12-31T11:52:29.453Z,40
2017-12-31T11:53:10.837Z,40
2017-12-31T11:53:51.049Z,40
2017-12-31T11:54:31.631Z,45
2017-12-31T11:55:12.290Z,40
2017-12-31T11:55:53.243Z,40
2017-12-31T11:56:33.869Z,40
2017-12-31T11:57:14.766Z,40
2017-12-31T11:57:54.926Z,45
2017-12-31T11:58:35.797Z,45
2017-12-31T11:59:16.251Z,45
2017-12-31T11:59:56.838Z,45
2017-12-31T12:00:37.463Z,45
2017-12-31T12:01:18.298Z,45
2017-12-31T12:01:58.824Z,45
2017-12-31T12:02:40.042Z,45
2017-12-31T12:03:21.585Z,45
2017-12-31T12:04:02.473Z,45
2017-12-31T12:04:43.065Z,45
2017-12-31T12:05:23.971Z,40
2017-12-31T12:06:04.118Z,40
2017-12-31T12:06:44.607Z,40
2017-12-31T12:07:25.712Z,40
2017-12-31T12:08:06.161Z,40
2017-12-31T12:08:46.573Z,35
2017-12-31T12:09:26.999Z,30
2017-12-31T12:10:07.428Z,30
2017-12-31T12:10:48.174Z,30
2017-12-31T12:11:28.539Z,30
2017-12-31T12:12:09.385Z,25
2017-12-31T12:12:49.908Z,30
2017-12-31T12:13:30.625Z,30
2017-12-31T12:14:11.224Z,30
2017-12-31T12:14:51.743Z,25
2017-12-31T12:15:33.070Z,25
2017-12-31T12:16:14.448Z,25
2017-12-31T12:16:55.322Z,25
2017-12-31T12:20:38.031Z,30
2017-12-31T12:21:23.178Z,25
2017-12-31T12:22:03.885Z,25
2017-12-31T12:22:44.897Z,25
2017-12-31T12:23:25.864Z,25
2017-12-31T12:24:06.288Z,25
2017-12-31T12:24:47.219Z,30
2017-12-31T12:25:27.704Z,30
2017-12-31T12:26:08.710Z,30
2017-12-31T12:26:49.304Z,30
2017-12-31T12:27:29.818Z,30
2017-12-31T12:28:10.172Z,35
2017-12-31T12:30:33.610Z,30
2017-12-31T12:31:14.075Z,30
2017-12-31T12:31:54.939Z,35
2017-12-31T12:32:35.463Z,30
2017-12-31T12:33:15.967Z,30
2017-12-31T12:33:56.485Z,30
2017-12-31T12:34:37.326Z,30
2017-12-31T12:35:17.885Z,30
2017-12-31T12:35:58.408Z,30
2017-12-31T12:36:39.261Z,30
2017-12-31T12:37:19.848Z,25
2017-12-31T12:38:00.264Z,25
2017-12-31T12:38:41.022Z,25
2017-12-31T12:39:21.599Z,25
2017-12-31T12:40:02.798Z,25
2017-12-31T12:42:43.100Z,25
2017-12-31T12:43:23.349Z,25
2017-12-31T12:44:04.001Z,25
2017-12-31T12:44:45.094Z,25
2017-12-31T12:45:26.008Z,25
2017-12-31T12:46:07.721Z,25
2017-12-31T12:46:48.078Z,25
2017-12-31T12:47:28.638Z,25
2017-12-31T12:48:09.162Z,25
2017-12-31T12:48:50.121Z,25
2017-12-31T12:49:30.546Z,25
2017-12-31T12:50:11.294Z,20
2017-12-31T12:50:51.686Z,20
2017-12-31T12:51:32.344Z,20
2017-12-31T12:52:12.739Z,15
2017-12-31T12:52:53.152Z,15
2017-12-31T12:53:34.260Z,15
2017-12-31T12:54:15.127Z,15
2017-12-31T12:54:55.916Z,15
2017-12-31T12:55:37.255Z,20
2017-12-31T12:56:17.840Z,20
2017-12-31T12:56:58.108Z,20
2017-12-31T12:57:39.615Z,20
2017-12-31T12:58:20.049Z,20
2017-12-31T12:59:00.642Z,20
2017-12-31T12:59:41.046Z,20
2017-12-31T13:00:22.037Z,20
2017-12-31T13:01:04.118Z,20
2017-12-31T13:01:44.426Z,25
2017-12-31T13:02:25.032Z,25
2017-12-31T13:03:06.571Z,25
2017-12-31T13:03:47.039Z,25
2017-12-31T13:04:27.587Z,25
2017-12-31T13:05:09.252Z,25
2017-12-31T13:05:49.784Z,25
2017-12-31T13:06:30.160Z,25
2017-12-31T13:07:10.707Z,25
2017-12-31T13:07:51.140Z,25
2017-12-31T13:08:31.974Z,25
2017-12-31T13:09:12.669Z,25
2017-12-31T13:09:53.205Z,25
2017-12-31T13:10:34.820Z,25
2017-12-31T13:11:15.170Z,25
2017-12-31T13:11:55.842Z,25
2017-12-31T13:12:36.424Z,25
2017-12-31T13:13:17.191Z,25
2017-12-31T13:13:57.902Z,25
2017-12-31T13:14:38.326Z,25
2017-12-31T13:15:19.079Z,25